sensor_id;sensor_type;location;lat;lon;timestamp;P1;P2;P0
80692;PMS5003;70055;39.436;-77.514;2024-01-27T00:00:16;1;1;
80692;PMS5003;70055;39.436;-77.514;2024-01-27T00:02:44;0;0;
80692;PMS5003;70055;39.436;-77.514;2024-01-27T00:05:13;1;1;
80692;PMS5003;70055;39.436;-77.514;2024-01-27T00:07:41;1;1;
80692;PMS5003;70055;39.436;-77.514;2024-01-27T00:10:10;1;1;
80692;PMS5003;70055;39.436;-77.514;2024-01-27T00:12:38;1;1;
80692;PMS5003;70055;39.436;-77.514;2024-01-27T00:15:08;1;1;
80692;PMS5003;70055;39.436;-77.514;2024-01-27T00:17:36;1;1;
80692;PMS5003;70055;39.436;-77.514;2024-01-27T00:20:05;2;2;
80692;PMS5003;70055;39.436;-77.514;2024-01-27T00:22:35;1;1;
80692;PMS5003;70055;39.436;-77.514;2024-01-27T00:25:03;2;2;
80692;PMS5003;70055;39.436;-77.514;2024-01-27T00:27:32;2;2;
80692;PMS5003;70055;39.436;-77.514;2024-01-27T00:30:01;1;1;
80692;PMS5003;70055;39.436;-77.514;2024-01-27T00:32:31;2;2;
80692;PMS5003;70055;39.436;-77.514;2024-01-27T00:34:58;2;2;
80692;PMS5003;70055;39.436;-77.514;2024-01-27T00:37:27;2;2;
80692;PMS5003;70055;39.436;-77.514;2024-01-27T00:39:55;2;2;
80692;PMS5003;70055;39.436;-77.514;2024-01-27T00:42:23;3;2;
80692;PMS5003;70055;39.436;-77.514;2024-01-27T00:44:52;2;2;
80692;PMS5003;70055;39.436;-77.514;2024-01-27T00:47:24;2;2;
80692;PMS5003;70055;39.436;-77.514;2024-01-27T00:49:52;2;2;
80692;PMS5003;70055;39.436;-77.514;2024-01-27T00:52:20;3;2;
80692;PMS5003;70055;39.436;-77.514;2024-01-27T00:54:49;2;2;
80692;PMS5003;70055;39.436;-77.514;2024-01-27T00:57:16;2;2;
80692;PMS5003;70055;39.436;-77.514;2024-01-27T00:59:44;3;3;
80692;PMS5003;70055;39.436;-77.514;2024-01-27T01:02:13;3;3;
80692;PMS5003;70055;39.436;-77.514;2024-01-27T01:04:42;2;2;
80692;PMS5003;70055;39.436;-77.514;2024-01-27T01:07:10;2;2;
80692;PMS5003;70055;39.436;-77.514;2024-01-27T01:09:38;2;2;
80692;PMS5003;70055;39.436;-77.514;2024-01-27T01:12:07;1;1;
80692;PMS5003;70055;39.436;-77.514;2024-01-27T01:14:35;2;2;
80692;PMS5003;70055;39.436;-77.514;2024-01-27T01:17:04;2;2;
80692;PMS5003;70055;39.436;-77.514;2024-01-27T01:19:33;3;3;
80692;PMS5003;70055;39.436;-77.514;2024-01-27T01:22:03;2;2;
80692;PMS5003;70055;39.436;-77.514;2024-01-27T01:24:32;2;2;
80692;PMS5003;70055;39.436;-77.514;2024-01-27T01:27:00;2;2;
80692;PMS5003;70055;39.436;-77.514;2024-01-27T01:29:28;3;3;
80692;PMS5003;70055;39.436;-77.514;2024-01-27T01:31:57;3;2;
80692;PMS5003;70055;39.436;-77.514;2024-01-27T01:34:25;3;3;
80692;PMS5003;70055;39.436;-77.514;2024-01-27T01:36:54;2;2;
80692;PMS5003;70055;39.436;-77.514;2024-01-27T01:39:24;2;2;
80692;PMS5003;70055;39.436;-77.514;2024-01-27T01:41:53;4;4;
80692;PMS5003;70055;39.436;-77.514;2024-01-27T01:44:30;2;2;
80692;PMS5003;70055;39.436;-77.514;2024-01-27T01:47:02;2;2;
80692;PMS5003;70055;39.436;-77.514;2024-01-27T01:49:33;4;4;
80692;PMS5003;70055;39.436;-77.514;2024-01-27T01:52:02;2;2;
80692;PMS5003;70055;39.436;-77.514;2024-01-27T01:54:32;3;3;
80692;PMS5003;70055;39.436;-77.514;2024-01-27T01:57:02;2;2;
80692;PMS5003;70055;39.436;-77.514;2024-01-27T01:59:31;3;3;
80692;PMS5003;70055;39.436;-77.514;2024-01-27T02:02:01;2;2;
80692;PMS5003;70055;39.436;-77.514;2024-01-27T02:04:39;2;2;
80692;PMS5003;70055;39.436;-77.514;2024-01-27T02:07:08;2;2;
80692;PMS5003;70055;39.436;-77.514;2024-01-27T02:09:36;3;3;
80692;PMS5003;70055;39.436;-77.514;2024-01-27T02:12:06;3;3;
80692;PMS5003;70055;39.436;-77.514;2024-01-27T02:14:35;2;2;
80692;PMS5003;70055;39.436;-77.514;2024-01-27T02:17:04;2;2;
80692;PMS5003;70055;39.436;-77.514;2024-01-27T02:19:32;3;3;
80692;PMS5003;70055;39.436;-77.514;2024-01-27T02:22:01;2;2;
80692;PMS5003;70055;39.436;-77.514;2024-01-27T02:24:30;3;3;
80692;PMS5003;70055;39.436;-77.514;2024-01-27T02:26:59;2;2;
80692;PMS5003;70055;39.436;-77.514;2024-01-27T02:29:28;2;2;
80692;PMS5003;70055;39.436;-77.514;2024-01-27T02:31:59;3;3;
80692;PMS5003;70055;39.436;-77.514;2024-01-27T02:34:26;2;2;
80692;PMS5003;70055;39.436;-77.514;2024-01-27T02:36:55;2;2;
80692;PMS5003;70055;39.436;-77.514;2024-01-27T02:39:23;3;3;
80692;PMS5003;70055;39.436;-77.514;2024-01-27T02:41:51;4;4;
80692;PMS5003;70055;39.436;-77.514;2024-01-27T02:44:19;2;2;
80692;PMS5003;70055;39.436;-77.514;2024-01-27T02:46:47;3;3;
80692;PMS5003;70055;39.436;-77.514;2024-01-27T02:49:15;2;2;
80692;PMS5003;70055;39.436;-77.514;2024-01-27T02:51:43;3;3;
80692;PMS5003;70055;39.436;-77.514;2024-01-27T02:54:11;3;3;
80692;PMS5003;70055;39.436;-77.514;2024-01-27T02:56:42;3;3;
80692;PMS5003;70055;39.436;-77.514;2024-01-27T02:59:11;2;2;
80692;PMS5003;70055;39.436;-77.514;2024-01-27T03:01:41;3;3;
80692;PMS5003;70055;39.436;-77.514;2024-01-27T03:04:10;3;3;
80692;PMS5003;70055;39.436;-77.514;2024-01-27T03:06:38;3;3;
80692;PMS5003;70055;39.436;-77.514;2024-01-27T03:09:07;3;3;
80692;PMS5003;70055;39.436;-77.514;2024-01-27T03:11:35;3;3;
80692;PMS5003;70055;39.436;-77.514;2024-01-27T03:14:04;2;2;
80692;PMS5003;70055;39.436;-77.514;2024-01-27T03:16:32;4;4;
80692;PMS5003;70055;39.436;-77.514;2024-01-27T03:19:00;3;3;
80692;PMS5003;70055;39.436;-77.514;2024-01-27T03:21:29;4;4;
80692;PMS5003;70055;39.436;-77.514;2024-01-27T03:23:57;4;3;
80692;PMS5003;70055;39.436;-77.514;2024-01-27T03:26:26;4;3;
80692;PMS5003;70055;39.436;-77.514;2024-01-27T03:28:54;2;2;
80692;PMS5003;70055;39.436;-77.514;2024-01-27T03:31:22;3;3;
80692;PMS5003;70055;39.436;-77.514;2024-01-27T03:33:50;3;3;
80692;PMS5003;70055;39.436;-77.514;2024-01-27T03:36:20;3;3;
80692;PMS5003;70055;39.436;-77.514;2024-01-27T03:38:47;3;3;
80692;PMS5003;70055;39.436;-77.514;2024-01-27T03:41:17;3;3;
80692;PMS5003;70055;39.436;-77.514;2024-01-27T03:43:47;4;4;
80692;PMS5003;70055;39.436;-77.514;2024-01-27T03:46:16;3;3;
80692;PMS5003;70055;39.436;-77.514;2024-01-27T03:48:45;2;2;
80692;PMS5003;70055;39.436;-77.514;2024-01-27T03:51:13;3;3;
80692;PMS5003;70055;39.436;-77.514;2024-01-27T03:53:42;3;3;
80692;PMS5003;70055;39.436;-77.514;2024-01-27T03:56:11;3;3;
80692;PMS5003;70055;39.436;-77.514;2024-01-27T03:58:41;3;3;
80692;PMS5003;70055;39.436;-77.514;2024-01-27T04:01:09;3;3;
80692;PMS5003;70055;39.436;-77.514;2024-01-27T04:03:37;3;3;
80692;PMS5003;70055;39.436;-77.514;2024-01-27T04:06:05;3;3;
80692;PMS5003;70055;39.436;-77.514;2024-01-27T04:08:37;3;3;
80692;PMS5003;70055;39.436;-77.514;2024-01-27T04:11:04;3;3;
80692;PMS5003;70055;39.436;-77.514;2024-01-27T04:13:40;2;2;
80692;PMS5003;70055;39.436;-77.514;2024-01-27T04:16:08;3;3;
80692;PMS5003;70055;39.436;-77.514;2024-01-27T04:18:38;3;3;
80692;PMS5003;70055;39.436;-77.514;2024-01-27T04:21:07;4;4;
80692;PMS5003;70055;39.436;-77.514;2024-01-27T04:23:36;3;3;
80692;PMS5003;70055;39.436;-77.514;2024-01-27T04:26:04;4;4;
80692;PMS5003;70055;39.436;-77.514;2024-01-27T04:28:33;3;3;
80692;PMS5003;70055;39.436;-77.514;2024-01-27T04:31:03;3;3;
80692;PMS5003;70055;39.436;-77.514;2024-01-27T04:33:31;6;5;
80692;PMS5003;70055;39.436;-77.514;2024-01-27T04:35:59;4;4;
80692;PMS5003;70055;39.436;-77.514;2024-01-27T04:38:27;6;6;
80692;PMS5003;70055;39.436;-77.514;2024-01-27T04:40:55;5;5;
80692;PMS5003;70055;39.436;-77.514;2024-01-27T04:43:24;7;7;
80692;PMS5003;70055;39.436;-77.514;2024-01-27T04:45:52;17;15;
80692;PMS5003;70055;39.436;-77.514;2024-01-27T04:48:23;11;10;
80692;PMS5003;70055;39.436;-77.514;2024-01-27T04:50:51;10;10;
80692;PMS5003;70055;39.436;-77.514;2024-01-27T04:53:19;8;8;
80692;PMS5003;70055;39.436;-77.514;2024-01-27T04:55:47;7;7;
80692;PMS5003;70055;39.436;-77.514;2024-01-27T04:58:15;11;11;
80692;PMS5003;70055;39.436;-77.514;2024-01-27T05:00:48;8;8;
80692;PMS5003;70055;39.436;-77.514;2024-01-27T05:03:16;7;7;
80692;PMS5003;70055;39.436;-77.514;2024-01-27T05:05:45;4;4;
80692;PMS5003;70055;39.436;-77.514;2024-01-27T05:08:15;6;5;
80692;PMS5003;70055;39.436;-77.514;2024-01-27T05:10:42;5;5;
80692;PMS5003;70055;39.436;-77.514;2024-01-27T05:13:13;4;3;
80692;PMS5003;70055;39.436;-77.514;2024-01-27T05:15:41;3;3;
80692;PMS5003;70055;39.436;-77.514;2024-01-27T05:18:09;5;5;
80692;PMS5003;70055;39.436;-77.514;2024-01-27T05:20:38;4;4;
80692;PMS5003;70055;39.436;-77.514;2024-01-27T05:23:06;7;7;
80692;PMS5003;70055;39.436;-77.514;2024-01-27T05:25:36;9;9;
80692;PMS5003;70055;39.436;-77.514;2024-01-27T05:28:04;5;5;
80692;PMS5003;70055;39.436;-77.514;2024-01-27T05:30:32;5;5;
80692;PMS5003;70055;39.436;-77.514;2024-01-27T05:33:01;6;6;
80692;PMS5003;70055;39.436;-77.514;2024-01-27T05:35:29;7;6;
80692;PMS5003;70055;39.436;-77.514;2024-01-27T05:37:56;7;7;
80692;PMS5003;70055;39.436;-77.514;2024-01-27T05:40:24;4;4;
80692;PMS5003;70055;39.436;-77.514;2024-01-27T05:42:54;4;4;
80692;PMS5003;70055;39.436;-77.514;2024-01-27T05:45:22;5;5;
80692;PMS5003;70055;39.436;-77.514;2024-01-27T05:47:50;4;4;
80692;PMS5003;70055;39.436;-77.514;2024-01-27T05:50:20;3;3;
80692;PMS5003;70055;39.436;-77.514;2024-01-27T05:52:47;5;5;
80692;PMS5003;70055;39.436;-77.514;2024-01-27T05:55:16;5;5;
80692;PMS5003;70055;39.436;-77.514;2024-01-27T05:57:44;4;4;
80692;PMS5003;70055;39.436;-77.514;2024-01-27T06:00:13;5;5;
80692;PMS5003;70055;39.436;-77.514;2024-01-27T06:02:41;5;5;
80692;PMS5003;70055;39.436;-77.514;2024-01-27T06:05:09;5;5;
80692;PMS5003;70055;39.436;-77.514;2024-01-27T06:07:38;4;4;
80692;PMS5003;70055;39.436;-77.514;2024-01-27T06:10:08;4;4;
80692;PMS5003;70055;39.436;-77.514;2024-01-27T06:12:37;4;4;
80692;PMS5003;70055;39.436;-77.514;2024-01-27T06:15:07;4;4;
80692;PMS5003;70055;39.436;-77.514;2024-01-27T06:17:36;5;5;
80692;PMS5003;70055;39.436;-77.514;2024-01-27T06:20:04;4;4;
80692;PMS5003;70055;39.436;-77.514;2024-01-27T06:22:35;4;4;
80692;PMS5003;70055;39.436;-77.514;2024-01-27T06:25:03;5;5;
80692;PMS5003;70055;39.436;-77.514;2024-01-27T06:27:32;4;4;
80692;PMS5003;70055;39.436;-77.514;2024-01-27T06:29:59;4;4;
80692;PMS5003;70055;39.436;-77.514;2024-01-27T06:32:28;4;3;
80692;PMS5003;70055;39.436;-77.514;2024-01-27T06:34:56;4;4;
80692;PMS5003;70055;39.436;-77.514;2024-01-27T06:37:25;4;4;
80692;PMS5003;70055;39.436;-77.514;2024-01-27T06:39:53;4;4;
80692;PMS5003;70055;39.436;-77.514;2024-01-27T06:42:22;6;6;
80692;PMS5003;70055;39.436;-77.514;2024-01-27T06:44:52;4;4;
80692;PMS5003;70055;39.436;-77.514;2024-01-27T06:47:19;5;5;
80692;PMS5003;70055;39.436;-77.514;2024-01-27T06:49:47;4;4;
80692;PMS5003;70055;39.436;-77.514;2024-01-27T06:52:15;3;3;
80692;PMS5003;70055;39.436;-77.514;2024-01-27T06:54:43;5;5;
80692;PMS5003;70055;39.436;-77.514;2024-01-27T06:57:18;6;5;
80692;PMS5003;70055;39.436;-77.514;2024-01-27T06:59:46;4;4;
80692;PMS5003;70055;39.436;-77.514;2024-01-27T07:02:14;6;6;
80692;PMS5003;70055;39.436;-77.514;2024-01-27T07:04:42;5;4;
80692;PMS5003;70055;39.436;-77.514;2024-01-27T07:07:13;5;5;
80692;PMS5003;70055;39.436;-77.514;2024-01-27T07:09:42;6;6;
80692;PMS5003;70055;39.436;-77.514;2024-01-27T07:12:10;6;6;
80692;PMS5003;70055;39.436;-77.514;2024-01-27T07:14:38;6;6;
80692;PMS5003;70055;39.436;-77.514;2024-01-27T07:17:06;6;6;
80692;PMS5003;70055;39.436;-77.514;2024-01-27T07:19:36;6;5;
80692;PMS5003;70055;39.436;-77.514;2024-01-27T07:22:03;8;8;
80692;PMS5003;70055;39.436;-77.514;2024-01-27T07:24:33;9;9;
80692;PMS5003;70055;39.436;-77.514;2024-01-27T07:27:01;6;6;
80692;PMS5003;70055;39.436;-77.514;2024-01-27T07:29:29;6;6;
80692;PMS5003;70055;39.436;-77.514;2024-01-27T07:31:57;6;6;
80692;PMS5003;70055;39.436;-77.514;2024-01-27T07:34:25;6;6;
80692;PMS5003;70055;39.436;-77.514;2024-01-27T07:36:54;8;8;
80692;PMS5003;70055;39.436;-77.514;2024-01-27T07:39:23;8;8;
80692;PMS5003;70055;39.436;-77.514;2024-01-27T07:41:51;9;9;
80692;PMS5003;70055;39.436;-77.514;2024-01-27T07:44:19;6;6;
80692;PMS5003;70055;39.436;-77.514;2024-01-27T07:46:48;6;6;
80692;PMS5003;70055;39.436;-77.514;2024-01-27T07:49:16;10;8;
80692;PMS5003;70055;39.436;-77.514;2024-01-27T07:51:44;8;8;
80692;PMS5003;70055;39.436;-77.514;2024-01-27T07:54:11;8;8;
80692;PMS5003;70055;39.436;-77.514;2024-01-27T07:56:40;8;8;
80692;PMS5003;70055;39.436;-77.514;2024-01-27T07:59:08;8;8;
80692;PMS5003;70055;39.436;-77.514;2024-01-27T08:01:37;8;8;
80692;PMS5003;70055;39.436;-77.514;2024-01-27T08:04:07;9;9;
80692;PMS5003;70055;39.436;-77.514;2024-01-27T08:06:45;8;8;
80692;PMS5003;70055;39.436;-77.514;2024-01-27T08:09:14;11;10;
80692;PMS5003;70055;39.436;-77.514;2024-01-27T08:11:45;9;9;
80692;PMS5003;70055;39.436;-77.514;2024-01-27T08:14:13;9;9;
80692;PMS5003;70055;39.436;-77.514;2024-01-27T08:16:41;12;10;
80692;PMS5003;70055;39.436;-77.514;2024-01-27T08:19:09;10;8;
80692;PMS5003;70055;39.436;-77.514;2024-01-27T08:21:37;9;9;
80692;PMS5003;70055;39.436;-77.514;2024-01-27T08:24:06;6;6;
80692;PMS5003;70055;39.436;-77.514;2024-01-27T08:26:33;8;8;
80692;PMS5003;70055;39.436;-77.514;2024-01-27T08:29:01;8;8;
80692;PMS5003;70055;39.436;-77.514;2024-01-27T08:31:30;7;7;
80692;PMS5003;70055;39.436;-77.514;2024-01-27T08:33:59;6;5;
80692;PMS5003;70055;39.436;-77.514;2024-01-27T08:36:27;8;8;
80692;PMS5003;70055;39.436;-77.514;2024-01-27T08:38:54;9;9;
80692;PMS5003;70055;39.436;-77.514;2024-01-27T08:41:23;9;9;
80692;PMS5003;70055;39.436;-77.514;2024-01-27T08:43:51;7;7;
80692;PMS5003;70055;39.436;-77.514;2024-01-27T08:46:20;9;9;
80692;PMS5003;70055;39.436;-77.514;2024-01-27T08:48:50;8;8;
80692;PMS5003;70055;39.436;-77.514;2024-01-27T08:51:17;8;8;
80692;PMS5003;70055;39.436;-77.514;2024-01-27T08:53:45;8;8;
80692;PMS5003;70055;39.436;-77.514;2024-01-27T08:56:13;8;8;
80692;PMS5003;70055;39.436;-77.514;2024-01-27T08:58:42;8;8;
80692;PMS5003;70055;39.436;-77.514;2024-01-27T09:01:10;9;9;
80692;PMS5003;70055;39.436;-77.514;2024-01-27T09:03:38;7;7;
80692;PMS5003;70055;39.436;-77.514;2024-01-27T09:06:06;8;8;
80692;PMS5003;70055;39.436;-77.514;2024-01-27T09:08:34;8;8;
80692;PMS5003;70055;39.436;-77.514;2024-01-27T09:11:03;8;8;
80692;PMS5003;70055;39.436;-77.514;2024-01-27T09:13:31;10;10;
80692;PMS5003;70055;39.436;-77.514;2024-01-27T09:16:00;10;10;
80692;PMS5003;70055;39.436;-77.514;2024-01-27T09:18:29;7;7;
80692;PMS5003;70055;39.436;-77.514;2024-01-27T09:20:57;7;7;
80692;PMS5003;70055;39.436;-77.514;2024-01-27T09:23:25;8;8;
80692;PMS5003;70055;39.436;-77.514;2024-01-27T09:25:54;8;8;
80692;PMS5003;70055;39.436;-77.514;2024-01-27T09:28:22;8;8;
80692;PMS5003;70055;39.436;-77.514;2024-01-27T09:30:51;7;7;
80692;PMS5003;70055;39.436;-77.514;2024-01-27T09:33:20;8;8;
80692;PMS5003;70055;39.436;-77.514;2024-01-27T09:35:49;5;5;
80692;PMS5003;70055;39.436;-77.514;2024-01-27T09:38:18;7;7;
80692;PMS5003;70055;39.436;-77.514;2024-01-27T09:40:48;7;7;
80692;PMS5003;70055;39.436;-77.514;2024-01-27T09:43:16;5;5;
80692;PMS5003;70055;39.436;-77.514;2024-01-27T09:45:46;7;7;
80692;PMS5003;70055;39.436;-77.514;2024-01-27T09:48:14;7;7;
80692;PMS5003;70055;39.436;-77.514;2024-01-27T09:50:44;8;7;
80692;PMS5003;70055;39.436;-77.514;2024-01-27T09:53:16;8;8;
80692;PMS5003;70055;39.436;-77.514;2024-01-27T09:55:44;8;8;
80692;PMS5003;70055;39.436;-77.514;2024-01-27T09:58:13;6;6;
80692;PMS5003;70055;39.436;-77.514;2024-01-27T10:00:42;8;8;
80692;PMS5003;70055;39.436;-77.514;2024-01-27T10:03:09;6;6;
80692;PMS5003;70055;39.436;-77.514;2024-01-27T10:05:37;8;8;
80692;PMS5003;70055;39.436;-77.514;2024-01-27T10:08:08;7;6;
80692;PMS5003;70055;39.436;-77.514;2024-01-27T10:10:37;7;7;
80692;PMS5003;70055;39.436;-77.514;2024-01-27T10:13:05;8;7;
80692;PMS5003;70055;39.436;-77.514;2024-01-27T10:15:33;5;5;
80692;PMS5003;70055;39.436;-77.514;2024-01-27T10:18:06;8;8;
80692;PMS5003;70055;39.436;-77.514;2024-01-27T10:20:35;8;8;
80692;PMS5003;70055;39.436;-77.514;2024-01-27T10:23:10;7;7;
80692;PMS5003;70055;39.436;-77.514;2024-01-27T10:25:39;7;7;
80692;PMS5003;70055;39.436;-77.514;2024-01-27T10:28:07;7;7;
80692;PMS5003;70055;39.436;-77.514;2024-01-27T10:30:35;7;7;
80692;PMS5003;70055;39.436;-77.514;2024-01-27T10:33:06;6;6;
80692;PMS5003;70055;39.436;-77.514;2024-01-27T10:35:35;3;3;
80692;PMS5003;70055;39.436;-77.514;2024-01-27T10:38:03;4;4;
80692;PMS5003;70055;39.436;-77.514;2024-01-27T10:40:32;5;4;
80692;PMS5003;70055;39.436;-77.514;2024-01-27T10:43:03;7;7;
80692;PMS5003;70055;39.436;-77.514;2024-01-27T10:45:34;5;5;
80692;PMS5003;70055;39.436;-77.514;2024-01-27T10:48:03;5;5;
80692;PMS5003;70055;39.436;-77.514;2024-01-27T10:50:34;8;7;
80692;PMS5003;70055;39.436;-77.514;2024-01-27T10:53:08;7;7;
80692;PMS5003;70055;39.436;-77.514;2024-01-27T10:55:48;5;5;
80692;PMS5003;70055;39.436;-77.514;2024-01-27T10:58:20;6;6;
80692;PMS5003;70055;39.436;-77.514;2024-01-27T11:00:50;6;6;
80692;PMS5003;70055;39.436;-77.514;2024-01-27T11:03:19;8;8;
80692;PMS5003;70055;39.436;-77.514;2024-01-27T11:05:49;5;5;
80692;PMS5003;70055;39.436;-77.514;2024-01-27T11:08:19;5;5;
80692;PMS5003;70055;39.436;-77.514;2024-01-27T11:10:47;6;6;
80692;PMS5003;70055;39.436;-77.514;2024-01-27T11:13:15;5;5;
80692;PMS5003;70055;39.436;-77.514;2024-01-27T11:15:50;4;4;
80692;PMS5003;70055;39.436;-77.514;2024-01-27T11:18:19;5;5;
80692;PMS5003;70055;39.436;-77.514;2024-01-27T11:20:47;7;7;
80692;PMS5003;70055;39.436;-77.514;2024-01-27T11:23:15;6;6;
80692;PMS5003;70055;39.436;-77.514;2024-01-27T11:25:43;5;5;
80692;PMS5003;70055;39.436;-77.514;2024-01-27T11:28:13;4;4;
80692;PMS5003;70055;39.436;-77.514;2024-01-27T11:30:44;5;5;
80692;PMS5003;70055;39.436;-77.514;2024-01-27T11:33:14;5;5;
80692;PMS5003;70055;39.436;-77.514;2024-01-27T11:35:44;5;4;
80692;PMS5003;70055;39.436;-77.514;2024-01-27T11:38:12;4;4;
80692;PMS5003;70055;39.436;-77.514;2024-01-27T11:40:48;3;3;
80692;PMS5003;70055;39.436;-77.514;2024-01-27T11:43:16;5;5;
80692;PMS5003;70055;39.436;-77.514;2024-01-27T11:45:54;4;4;
80692;PMS5003;70055;39.436;-77.514;2024-01-27T11:48:23;5;5;
80692;PMS5003;70055;39.436;-77.514;2024-01-27T11:51:02;4;4;
80692;PMS5003;70055;39.436;-77.514;2024-01-27T11:53:30;4;4;
80692;PMS5003;70055;39.436;-77.514;2024-01-27T11:55:59;5;4;
80692;PMS5003;70055;39.436;-77.514;2024-01-27T11:58:27;3;3;
80692;PMS5003;70055;39.436;-77.514;2024-01-27T12:00:55;4;4;
80692;PMS5003;70055;39.436;-77.514;2024-01-27T12:03:23;3;3;
80692;PMS5003;70055;39.436;-77.514;2024-01-27T12:05:51;4;4;
80692;PMS5003;70055;39.436;-77.514;2024-01-27T12:08:19;4;4;
80692;PMS5003;70055;39.436;-77.514;2024-01-27T12:10:48;3;3;
80692;PMS5003;70055;39.436;-77.514;2024-01-27T12:13:16;2;2;
80692;PMS5003;70055;39.436;-77.514;2024-01-27T12:15:44;2;2;
80692;PMS5003;70055;39.436;-77.514;2024-01-27T12:18:13;2;2;
80692;PMS5003;70055;39.436;-77.514;2024-01-27T12:20:41;3;3;
80692;PMS5003;70055;39.436;-77.514;2024-01-27T12:23:09;2;2;
80692;PMS5003;70055;39.436;-77.514;2024-01-27T12:25:38;2;2;
80692;PMS5003;70055;39.436;-77.514;2024-01-27T12:28:07;3;2;
80692;PMS5003;70055;39.436;-77.514;2024-01-27T12:30:36;3;3;
80692;PMS5003;70055;39.436;-77.514;2024-01-27T12:33:08;2;2;
80692;PMS5003;70055;39.436;-77.514;2024-01-27T12:35:39;3;3;
80692;PMS5003;70055;39.436;-77.514;2024-01-27T12:38:08;2;2;
80692;PMS5003;70055;39.436;-77.514;2024-01-27T12:40:38;3;3;
80692;PMS5003;70055;39.436;-77.514;2024-01-27T12:43:06;4;4;
80692;PMS5003;70055;39.436;-77.514;2024-01-27T12:45:35;3;3;
80692;PMS5003;70055;39.436;-77.514;2024-01-27T12:48:03;3;3;
80692;PMS5003;70055;39.436;-77.514;2024-01-27T12:50:33;3;3;
80692;PMS5003;70055;39.436;-77.514;2024-01-27T12:53:01;4;4;
80692;PMS5003;70055;39.436;-77.514;2024-01-27T12:55:29;4;4;
80692;PMS5003;70055;39.436;-77.514;2024-01-27T12:57:57;3;3;
80692;PMS5003;70055;39.436;-77.514;2024-01-27T13:00:25;2;2;
80692;PMS5003;70055;39.436;-77.514;2024-01-27T13:02:54;4;4;
80692;PMS5003;70055;39.436;-77.514;2024-01-27T13:05:22;4;3;
80692;PMS5003;70055;39.436;-77.514;2024-01-27T13:07:51;2;2;
80692;PMS5003;70055;39.436;-77.514;2024-01-27T13:10:20;4;4;
80692;PMS5003;70055;39.436;-77.514;2024-01-27T13:12:48;3;3;
80692;PMS5003;70055;39.436;-77.514;2024-01-27T13:15:17;3;3;
80692;PMS5003;70055;39.436;-77.514;2024-01-27T13:17:48;4;4;
80692;PMS5003;70055;39.436;-77.514;2024-01-27T13:20:19;3;3;
80692;PMS5003;70055;39.436;-77.514;2024-01-27T13:22:47;2;2;
80692;PMS5003;70055;39.436;-77.514;2024-01-27T13:25:16;3;3;
80692;PMS5003;70055;39.436;-77.514;2024-01-27T13:27:44;4;4;
80692;PMS5003;70055;39.436;-77.514;2024-01-27T13:30:13;3;3;
80692;PMS5003;70055;39.436;-77.514;2024-01-27T13:32:41;3;3;
80692;PMS5003;70055;39.436;-77.514;2024-01-27T13:35:09;3;3;
80692;PMS5003;70055;39.436;-77.514;2024-01-27T13:37:37;4;4;
80692;PMS5003;70055;39.436;-77.514;2024-01-27T13:40:05;3;3;
80692;PMS5003;70055;39.436;-77.514;2024-01-27T13:42:34;5;3;
80692;PMS5003;70055;39.436;-77.514;2024-01-27T13:45:02;4;3;
80692;PMS5003;70055;39.436;-77.514;2024-01-27T13:47:31;2;2;
80692;PMS5003;70055;39.436;-77.514;2024-01-27T13:49:59;4;4;
80692;PMS5003;70055;39.436;-77.514;2024-01-27T13:52:27;4;4;
80692;PMS5003;70055;39.436;-77.514;2024-01-27T13:54:55;3;3;
80692;PMS5003;70055;39.436;-77.514;2024-01-27T13:57:23;4;4;
80692;PMS5003;70055;39.436;-77.514;2024-01-27T13:59:52;5;4;
80692;PMS5003;70055;39.436;-77.514;2024-01-27T14:02:26;3;3;
80692;PMS5003;70055;39.436;-77.514;2024-01-27T14:04:56;4;4;
80692;PMS5003;70055;39.436;-77.514;2024-01-27T14:07:25;4;4;
80692;PMS5003;70055;39.436;-77.514;2024-01-27T14:09:54;4;4;
80692;PMS5003;70055;39.436;-77.514;2024-01-27T14:12:24;5;5;
80692;PMS5003;70055;39.436;-77.514;2024-01-27T14:14:52;4;4;
80692;PMS5003;70055;39.436;-77.514;2024-01-27T14:17:20;5;5;
80692;PMS5003;70055;39.436;-77.514;2024-01-27T14:19:50;6;5;
80692;PMS5003;70055;39.436;-77.514;2024-01-27T14:22:18;4;4;
80692;PMS5003;70055;39.436;-77.514;2024-01-27T14:24:46;5;5;
80692;PMS5003;70055;39.436;-77.514;2024-01-27T14:27:14;6;5;
80692;PMS5003;70055;39.436;-77.514;2024-01-27T14:29:42;5;5;
80692;PMS5003;70055;39.436;-77.514;2024-01-27T14:32:11;5;4;
80692;PMS5003;70055;39.436;-77.514;2024-01-27T14:34:39;6;6;
80692;PMS5003;70055;39.436;-77.514;2024-01-27T14:37:08;4;4;
80692;PMS5003;70055;39.436;-77.514;2024-01-27T14:39:36;3;3;
80692;PMS5003;70055;39.436;-77.514;2024-01-27T14:42:05;4;4;
80692;PMS5003;70055;39.436;-77.514;2024-01-27T14:44:34;3;3;
80692;PMS5003;70055;39.436;-77.514;2024-01-27T14:47:02;3;3;
80692;PMS5003;70055;39.436;-77.514;2024-01-27T14:49:31;3;3;
80692;PMS5003;70055;39.436;-77.514;2024-01-27T14:51:59;2;2;
80692;PMS5003;70055;39.436;-77.514;2024-01-27T14:54:27;3;3;
80692;PMS5003;70055;39.436;-77.514;2024-01-27T14:56:55;4;3;
80692;PMS5003;70055;39.436;-77.514;2024-01-27T14:59:24;3;3;
80692;PMS5003;70055;39.436;-77.514;2024-01-27T15:01:53;3;3;
80692;PMS5003;70055;39.436;-77.514;2024-01-27T15:04:29;3;3;
80692;PMS5003;70055;39.436;-77.514;2024-01-27T15:06:57;2;2;
80692;PMS5003;70055;39.436;-77.514;2024-01-27T15:09:26;1;1;
80692;PMS5003;70055;39.436;-77.514;2024-01-27T15:11:55;1;1;
80692;PMS5003;70055;39.436;-77.514;2024-01-27T15:14:25;2;2;
80692;PMS5003;70055;39.436;-77.514;2024-01-27T15:16:53;2;2;
80692;PMS5003;70055;39.436;-77.514;2024-01-27T15:19:22;1;1;
80692;PMS5003;70055;39.436;-77.514;2024-01-27T15:21:53;1;1;
80692;PMS5003;70055;39.436;-77.514;2024-01-27T15:24:21;1;1;
80692;PMS5003;70055;39.436;-77.514;2024-01-27T15:26:49;2;2;
80692;PMS5003;70055;39.436;-77.514;2024-01-27T15:29:17;1;1;
80692;PMS5003;70055;39.436;-77.514;2024-01-27T15:31:46;1;1;
80692;PMS5003;70055;39.436;-77.514;2024-01-27T15:34:13;3;3;
80692;PMS5003;70055;39.436;-77.514;2024-01-27T15:36:42;2;2;
80692;PMS5003;70055;39.436;-77.514;2024-01-27T15:39:10;2;1;
80692;PMS5003;70055;39.436;-77.514;2024-01-27T15:41:38;1;1;
80692;PMS5003;70055;39.436;-77.514;2024-01-27T15:44:06;2;2;
80692;PMS5003;70055;39.436;-77.514;2024-01-27T15:46:36;2;2;
80692;PMS5003;70055;39.436;-77.514;2024-01-27T15:49:04;1;1;
80692;PMS5003;70055;39.436;-77.514;2024-01-27T15:51:32;2;2;
80692;PMS5003;70055;39.436;-77.514;2024-01-27T15:54:00;1;1;
80692;PMS5003;70055;39.436;-77.514;2024-01-27T15:56:28;1;1;
80692;PMS5003;70055;39.436;-77.514;2024-01-27T15:58:56;1;1;
80692;PMS5003;70055;39.436;-77.514;2024-01-27T16:01:26;1;1;
80692;PMS5003;70055;39.436;-77.514;2024-01-27T16:03:56;1;1;
80692;PMS5003;70055;39.436;-77.514;2024-01-27T16:06:25;2;2;
80692;PMS5003;70055;39.436;-77.514;2024-01-27T16:08:55;1;1;
80692;PMS5003;70055;39.436;-77.514;2024-01-27T16:11:23;2;2;
80692;PMS5003;70055;39.436;-77.514;2024-01-27T16:13:52;2;2;
80692;PMS5003;70055;39.436;-77.514;2024-01-27T16:16:20;2;2;
80692;PMS5003;70055;39.436;-77.514;2024-01-27T16:18:48;1;1;
80692;PMS5003;70055;39.436;-77.514;2024-01-27T16:21:16;1;1;
80692;PMS5003;70055;39.436;-77.514;2024-01-27T16:23:44;2;2;
80692;PMS5003;70055;39.436;-77.514;2024-01-27T16:26:12;2;2;